Sitiawan, Malaysia
Current Conditions -  °F | °C
As of 4:00 AM on Sunday 26 Oct 2014 (Local Time) from WMBA Reporting Station
Broken Clouds Broken Clouds  
Wind Chill: 77°   Ceiling: 28000
Heat Index: 78°   Visibility: 6mi
Dew Point: 77°   Wind: 1mph
Humidity: 100%   Direction: 60°ENE
Pressure: 29.83"   Gusts: NA
Location:  4.22°N, 100.7°E
Report Text: WMBA 252000Z 06001KT 9000 FEW008 SCT150 BKN280 25/25 Q1010
Loading
Personal Weather Stations






























Interactive Weather Map
Tropical Storm Tracking
New forecast layout! Learn more

10-Day Weather Forecast

Advertisements
Track Severe Weather on mobile